Time;durP1;ratioP1;P1;durP2;ratioP2;P2;SDS_P1;SDS_P2;PMS_P1;PMS_P2;Temp;Humidity;BMP_temperature;BMP_pressure;BME280_temperature;BME280_humidity;BME280_pressure;Samples;Min_cycle;Max_cycle;Signal;HPM_P1;HPM_P2
2023/12/03 00:02:24;;;;;;;18.13;9.47;;;-2.60;99.90;;;;;;9668847;23;20229;-90
2023/12/03 00:06:09;;;;;;;23.43;10.33;;;-2.70;99.90;;;;;;9695196;23;20509;-90
2023/12/03 00:09:56;;;;;;;16.83;9.33;;;-2.70;99.90;;;;;;9668471;23;20157;-90
2023/12/03 00:13:42;;;;;;;23.37;9.47;;;-2.70;99.90;;;;;;9669116;23;20188;-91
2023/12/03 00:17:28;;;;;;;21.00;10.70;;;-2.50;99.90;;;;;;9669936;23;20192;-90
2023/12/03 00:21:13;;;;;;;18.83;10.07;;;-2.50;99.90;;;;;;9678229;23;20167;-90
2023/12/03 00:24:59;;;;;;;20.97;10.23;;;-2.50;99.90;;;;;;9708825;22;20153;-89
2023/12/03 00:28:45;;;;;;;20.60;10.57;;;-2.50;99.90;;;;;;9712045;22;20145;-90
2023/12/03 00:32:30;;;;;;;23.17;10.77;;;-2.50;99.90;;;;;;9699989;22;20209;-92
2023/12/03 00:36:16;;;;;;;20.93;10.77;;;-2.60;99.90;;;;;;9672630;23;20595;-91
2023/12/03 00:40:02;;;;;;;19.37;10.07;;;-2.70;99.90;;;;;;9670545;23;20185;-90
2023/12/03 00:43:48;;;;;;;21.57;10.43;;;-2.60;99.90;;;;;;9669921;23;20157;-91
2023/12/03 00:47:34;;;;;;;22.27;9.93;;;-2.60;99.90;;;;;;9669543;23;20177;-91
2023/12/03 00:51:20;;;;;;;22.83;11.13;;;-2.60;99.90;;;;;;9669110;23;20164;-91
2023/12/03 00:55:06;;;;;;;21.67;10.83;;;-2.70;99.90;;;;;;9668693;23;20196;-90
2023/12/03 00:58:51;;;;;;;23.00;11.03;;;-2.60;99.90;;;;;;9669902;23;20164;-90
2023/12/03 01:02:37;;;;;;;22.17;10.80;;;-2.60;99.90;;;;;;9668590;23;20165;-91
2023/12/03 01:06:23;;;;;;;22.93;12.27;;;-2.60;99.90;;;;;;9667236;23;20501;-90
2023/12/03 01:10:09;;;;;;;20.93;10.50;;;-2.70;99.90;;;;;;9668172;23;20184;-90
2023/12/03 01:13:54;;;;;;;24.73;10.97;;;-2.70;99.90;;;;;;9694875;23;20157;-90
2023/12/03 01:17:40;;;;;;;24.30;12.27;;;-2.70;99.90;;;;;;9668240;23;20191;-91
2023/12/03 01:21:25;;;;;;;21.23;11.07;;;-2.70;99.90;;;;;;9669082;23;20604;-91
2023/12/03 01:25:11;;;;;;;26.40;11.77;;;-2.70;99.90;;;;;;9667816;23;20176;-91
2023/12/03 01:28:58;;;;;;;24.17;11.53;;;-2.70;99.90;;;;;;9668365;23;20262;-90
2023/12/03 01:32:43;;;;;;;21.37;10.27;;;-2.60;99.90;;;;;;9696493;23;20862;-91
2023/12/03 01:36:29;;;;;;;21.43;10.80;;;-2.60;99.90;;;;;;9664808;23;20197;-91
2023/12/03 01:40:15;;;;;;;26.97;11.17;;;-2.70;99.90;;;;;;9664417;23;20157;-91
2023/12/03 01:44:00;;;;;;;21.37;11.00;;;-2.70;99.90;;;;;;9661847;23;20209;-91
2023/12/03 01:47:47;;;;;;;28.37;13.70;;;-2.70;99.90;;;;;;9663757;23;20226;-91
2023/12/03 01:51:33;;;;;;;27.13;12.53;;;-2.70;99.90;;;;;;9663963;23;20161;-91
2023/12/03 01:55:20;;;;;;;23.33;12.37;;;-2.60;99.90;;;;;;9663397;23;20188;-91
2023/12/03 01:59:05;;;;;;;22.20;11.53;;;-2.60;99.90;;;;;;9663476;23;20207;-91
2023/12/03 02:02:51;;;;;;;22.83;11.90;;;-2.50;99.90;;;;;;9663334;23;20186;-91
2023/12/03 02:06:37;;;;;;;25.10;11.97;;;-2.50;99.90;;;;;;9663512;23;20203;-90
2023/12/03 02:10:23;;;;;;;23.33;11.53;;;-2.40;99.90;;;;;;9664128;23;20207;-91
2023/12/03 02:14:09;;;;;;;27.97;12.23;;;-2.40;99.90;;;;;;9663653;23;20243;-91
2023/12/03 02:17:55;;;;;;;23.20;11.90;;;-2.40;99.90;;;;;;9663094;23;20551;-91
2023/12/03 02:21:41;;;;;;;24.60;11.07;;;-2.40;99.90;;;;;;9663463;23;20267;-91
2023/12/03 02:25:27;;;;;;;25.50;11.23;;;-2.50;99.90;;;;;;9662724;23;20184;-92
2023/12/03 02:29:12;;;;;;;24.93;11.23;;;-2.50;99.90;;;;;;9663307;23;20252;-91
2023/12/03 02:32:58;;;;;;;25.87;11.93;;;-2.50;99.90;;;;;;9663005;23;20204;-91
2023/12/03 02:36:44;;;;;;;25.60;11.90;;;-2.50;99.90;;;;;;9662768;23;20196;-91
2023/12/03 02:40:32;;;;;;;26.57;12.23;;;-2.50;99.90;;;;;;9663309;23;20677;-90
2023/12/03 02:44:17;;;;;;;26.37;12.30;;;-2.40;99.90;;;;;;9663221;23;20153;-91
2023/12/03 02:48:04;;;;;;;25.10;11.40;;;-2.40;99.90;;;;;;9662801;23;20196;-91
2023/12/03 02:51:49;;;;;;;25.73;12.03;;;-2.50;99.90;;;;;;9662939;23;20160;-90
2023/12/03 02:55:35;;;;;;;25.03;11.40;;;-2.50;99.90;;;;;;9662563;23;20192;-91
2023/12/03 02:59:21;;;;;;;21.90;11.10;;;-2.50;99.90;;;;;;9662988;23;20162;-92
2023/12/03 03:03:06;;;;;;;24.43;10.90;;;-2.50;99.90;;;;;;9662200;23;20627;-91
2023/12/03 03:06:52;;;;;;;28.03;12.23;;;-2.40;99.90;;;;;;9662802;23;20185;-91
2023/12/03 03:10:37;;;;;;;24.53;11.90;;;-2.30;99.90;;;;;;9662875;23;20184;-91
2023/12/03 03:14:24;;;;;;;26.70;12.00;;;-2.40;99.90;;;;;;9662771;23;20235;-92
2023/12/03 03:18:10;;;;;;;24.70;11.07;;;-2.40;99.90;;;;;;9662266;23;20637;-91
2023/12/03 03:21:55;;;;;;;23.83;11.33;;;-2.40;99.90;;;;;;9662888;23;20512;-91
2023/12/03 03:25:41;;;;;;;27.63;12.40;;;-2.40;99.90;;;;;;9662352;23;20230;-90
2023/12/03 03:29:26;;;;;;;25.23;12.03;;;-2.30;99.90;;;;;;9662827;23;20184;-90
2023/12/03 03:33:12;;;;;;;24.93;11.90;;;-2.40;99.90;;;;;;9662421;23;20162;-91
2023/12/03 03:36:58;;;;;;;25.17;11.70;;;-2.30;99.90;;;;;;9661944;23;20243;-90
2023/12/03 03:40:43;;;;;;;24.90;12.43;;;-2.30;99.90;;;;;;9662544;23;20192;-91
2023/12/03 03:44:37;;;;;;;26.53;12.43;;;-2.30;99.90;;;;;;9689142;23;20156;-91
2023/12/03 03:48:23;;;;;;;26.93;12.60;;;-2.40;99.90;;;;;;9663318;23;20591;-90
2023/12/03 03:52:09;;;;;;;23.93;11.17;;;-2.40;99.90;;;;;;9665495;23;20175;-90
2023/12/03 03:55:54;;;;;;;26.03;12.33;;;-2.50;99.90;;;;;;9664870;23;20660;-92
2023/12/03 03:59:43;;;;;;;26.97;12.00;;;-2.50;99.90;;;;;;9665402;23;20593;-91
2023/12/03 04:03:29;;;;;;;30.27;12.57;;;-2.50;99.90;;;;;;9665985;23;20161;-91
2023/12/03 04:07:14;;;;;;;27.93;12.97;;;-2.50;99.90;;;;;;9665339;23;20177;-91
2023/12/03 04:11:04;;;;;;;27.13;12.47;;;-2.40;99.90;;;;;;9665129;23;20643;-91
2023/12/03 04:14:50;;;;;;;28.77;13.33;;;-2.50;99.90;;;;;;9664848;23;20167;-91
2023/12/03 04:18:37;;;;;;;28.20;13.33;;;-2.40;99.90;;;;;;9665158;23;20153;-91
2023/12/03 04:22:24;;;;;;;29.73;13.47;;;-2.40;99.90;;;;;;9665723;23;20512;-91
2023/12/03 04:26:10;;;;;;;26.33;11.87;;;-2.40;99.90;;;;;;9665011;23;20182;-91
2023/12/03 04:29:55;;;;;;;25.23;12.83;;;-2.40;99.90;;;;;;9664789;23;20693;-91
2023/12/03 04:33:41;;;;;;;29.33;13.13;;;-2.30;99.90;;;;;;9664859;23;20493;-92
2023/12/03 04:37:27;;;;;;;28.90;12.97;;;-2.40;99.90;;;;;;9663760;23;20193;-90
2023/12/03 04:41:12;;;;;;;28.63;13.80;;;-2.30;99.90;;;;;;9664654;23;20170;-91
2023/12/03 04:44:58;;;;;;;29.33;13.40;;;-2.40;99.90;;;;;;9664556;23;20185;-91
2023/12/03 04:48:44;;;;;;;30.93;13.17;;;-2.30;99.90;;;;;;9664606;23;20172;-90
2023/12/03 04:52:48;;;;;;;30.07;13.77;;;-2.30;99.90;;;;;;9664602;23;20590;-91
2023/12/03 04:56:34;;;;;;;27.13;12.37;;;-2.30;99.90;;;;;;9666859;23;20218;-90
2023/12/03 05:00:22;;;;;;;25.83;12.47;;;-2.30;99.90;;;;;;9719282;23;20200;-90
2023/12/03 05:04:07;;;;;;;24.83;12.57;;;-2.30;99.90;;;;;;9668500;23;20188;-90
2023/12/03 05:07:53;;;;;;;25.53;11.93;;;-2.30;99.90;;;;;;9681288;23;20189;-90
2023/12/03 05:11:40;;;;;;;23.93;12.03;;;-2.30;99.90;;;;;;9664246;23;20162;-91
2023/12/03 05:15:26;;;;;;;26.90;12.17;;;-2.30;99.90;;;;;;9663535;23;20193;-90
2023/12/03 05:19:11;;;;;;;26.57;11.70;;;-2.30;99.90;;;;;;9663792;23;20189;-90
2023/12/03 05:22:57;;;;;;;21.47;10.97;;;-2.30;99.90;;;;;;9663989;23;20161;-90
2023/12/03 05:26:42;;;;;;;21.13;11.13;;;-2.20;99.90;;;;;;9663542;23;20177;-90
2023/12/03 05:30:28;;;;;;;24.63;11.57;;;-2.20;99.90;;;;;;9663567;23;20173;-90
2023/12/03 05:34:14;;;;;;;24.23;11.97;;;-2.20;99.90;;;;;;9663406;23;20172;-90
2023/12/03 05:38:01;;;;;;;26.17;12.13;;;-2.20;99.90;;;;;;9663187;23;20195;-90
2023/12/03 05:41:47;;;;;;;23.17;10.97;;;-2.20;99.90;;;;;;9690744;23;20134;-90
2023/12/03 05:45:33;;;;;;;24.33;11.20;;;-2.20;99.90;;;;;;9663228;23;20235;-90
2023/12/03 05:49:19;;;;;;;25.00;11.70;;;-2.20;99.90;;;;;;9663522;23;20267;-91
2023/12/03 05:53:04;;;;;;;22.63;11.43;;;-2.10;99.90;;;;;;9663840;23;20590;-91
2023/12/03 05:56:50;;;;;;;24.63;11.33;;;-2.10;99.90;;;;;;9663093;23;20550;-91
2023/12/03 06:00:36;;;;;;;22.07;10.70;;;-2.20;99.90;;;;;;9663784;23;20181;-90
2023/12/03 06:04:22;;;;;;;22.53;11.53;;;-2.10;99.90;;;;;;9672244;23;20158;-89
2023/12/03 06:08:15;;;;;;;24.93;11.10;;;-2.20;99.90;;;;;;9703754;22;20200;-90
2023/12/03 06:12:07;;;;;;;23.23;11.33;;;-2.20;99.90;;;;;;9707154;22;20143;-90
2023/12/03 06:15:56;;;;;;;23.40;10.90;;;-2.20;99.90;;;;;;9695767;23;20195;-90
2023/12/03 06:19:42;;;;;;;22.73;10.90;;;-2.20;99.90;;;;;;9664722;23;20566;-90
2023/12/03 06:23:28;;;;;;;23.30;11.53;;;-2.20;99.90;;;;;;9662487;23;20255;-90
2023/12/03 06:27:13;;;;;;;23.00;10.97;;;-2.20;99.90;;;;;;9662238;23;20227;-90
2023/12/03 06:30:59;;;;;;;24.73;12.77;;;-2.20;99.90;;;;;;9661569;23;20176;-90
2023/12/03 06:34:46;;;;;;;24.53;10.93;;;-2.10;99.90;;;;;;9660651;23;20157;-90
2023/12/03 06:38:31;;;;;;;24.60;12.27;;;-2.20;99.90;;;;;;9662250;23;20149;-90
2023/12/03 06:42:17;;;;;;;25.47;11.83;;;-2.20;99.90;;;;;;9661402;23;20203;-90
2023/12/03 06:46:03;;;;;;;22.40;11.70;;;-2.20;99.90;;;;;;9660350;23;20268;-90
2023/12/03 06:49:54;;;;;;;24.13;10.90;;;-2.10;99.90;;;;;;9661165;23;20211;-90
2023/12/03 06:53:40;;;;;;;22.50;10.80;;;-2.10;99.90;;;;;;9663868;23;20236;-89
2023/12/03 06:57:26;;;;;;;31.00;11.80;;;-2.10;99.90;;;;;;9661706;23;20220;-89
2023/12/03 07:01:16;;;;;;;23.60;11.57;;;-2.10;99.90;;;;;;9662029;23;20157;-91
2023/12/03 07:05:02;;;;;;;22.37;10.50;;;-2.10;99.90;;;;;;9661257;23;20643;-91
2023/12/03 07:08:48;;;;;;;25.40;11.53;;;-2.10;99.90;;;;;;9661846;23;20186;-90
2023/12/03 07:12:34;;;;;;;27.17;11.30;;;-2.00;99.90;;;;;;9662187;23;20563;-90
2023/12/03 07:16:19;;;;;;;23.93;10.87;;;-2.10;99.90;;;;;;9661224;23;20649;-90
2023/12/03 07:20:06;;;;;;;21.97;10.80;;;-2.00;99.90;;;;;;9662369;23;20595;-91
2023/12/03 07:23:52;;;;;;;23.27;10.87;;;-2.10;99.90;;;;;;9663855;23;20153;-90
2023/12/03 07:27:41;;;;;;;26.03;11.17;;;-2.10;99.90;;;;;;9664224;23;20208;-90
2023/12/03 07:31:27;;;;;;;26.53;13.03;;;-2.10;99.90;;;;;;9663185;23;20177;-90
2023/12/03 07:35:13;;;;;;;29.80;12.73;;;-2.10;99.90;;;;;;9661998;23;20193;-90
2023/12/03 07:39:08;;;;;;;29.53;12.27;;;-2.10;99.90;;;;;;9663729;23;20157;-90
2023/12/03 07:42:54;;;;;;;27.77;12.80;;;-2.10;99.90;;;;;;9665995;23;20498;-91
2023/12/03 07:46:40;;;;;;;26.83;11.27;;;-2.10;99.90;;;;;;9666411;23;20192;-90
2023/12/03 07:50:25;;;;;;;27.23;12.03;;;-2.00;99.90;;;;;;9668043;23;20500;-90
2023/12/03 07:54:11;;;;;;;26.60;11.80;;;-2.00;99.90;;;;;;9667107;23;20165;-91
2023/12/03 07:57:56;;;;;;;28.87;12.10;;;-2.00;99.90;;;;;;9668398;23;20837;-90
2023/12/03 08:01:42;;;;;;;31.23;12.80;;;-2.00;99.90;;;;;;9668262;23;20195;-89
2023/12/03 08:05:28;;;;;;;27.70;12.40;;;-2.00;99.90;;;;;;9667242;23;20185;-90
2023/12/03 08:09:13;;;;;;;31.77;12.63;;;-2.00;99.90;;;;;;9667740;23;20165;-90
2023/12/03 08:12:59;;;;;;;28.30;12.27;;;-2.00;99.90;;;;;;9666572;23;20157;-91
2023/12/03 08:16:45;;;;;;;27.23;12.07;;;-2.00;99.90;;;;;;9664033;23;20243;-90
2023/12/03 08:20:30;;;;;;;27.93;12.43;;;-2.00;99.90;;;;;;9666314;23;20181;-90
2023/12/03 08:24:16;;;;;;;25.37;12.07;;;-1.90;99.90;;;;;;9665288;23;20207;-90
2023/12/03 08:28:02;;;;;;;27.30;12.73;;;-2.00;99.90;;;;;;9664951;23;20177;-91
2023/12/03 08:31:49;;;;;;;27.53;12.33;;;-1.90;99.90;;;;;;9664781;23;20248;-90
2023/12/03 08:35:35;;;;;;;25.83;11.77;;;-1.90;99.90;;;;;;9662220;23;20252;-90
2023/12/03 08:39:21;;;;;;;26.47;12.43;;;-1.90;99.90;;;;;;9663259;23;20585;-90
2023/12/03 08:43:07;;;;;;;25.80;13.33;;;-1.90;99.90;;;;;;9664479;23;20161;-90
2023/12/03 08:46:53;;;;;;;37.70;13.57;;;-1.80;99.90;;;;;;9661998;23;20536;-90
2023/12/03 08:50:39;;;;;;;24.60;12.20;;;-1.80;99.90;;;;;;9664755;23;20328;-90
2023/12/03 08:54:24;;;;;;;26.37;12.70;;;-1.80;99.90;;;;;;9689485;23;20613;-90
2023/12/03 08:58:10;;;;;;;35.97;14.80;;;-1.80;99.90;;;;;;9663638;23;20673;-91
2023/12/03 09:01:56;;;;;;;43.37;17.30;;;-1.80;99.90;;;;;;9663049;23;20596;-91
2023/12/03 09:05:43;;;;;;;26.53;12.37;;;-1.70;99.90;;;;;;9662680;23;20264;-91
2023/12/03 09:09:28;;;;;;;27.90;13.40;;;-1.80;99.90;;;;;;9663718;23;20183;-91
2023/12/03 09:13:14;;;;;;;29.20;12.27;;;-1.90;99.90;;;;;;9665500;23;20230;-90
2023/12/03 09:17:12;;;;;;;26.30;12.33;;;-1.90;99.90;;;;;;9664794;23;20189;-91
2023/12/03 09:20:57;;;;;;;30.47;12.87;;;-1.80;99.90;;;;;;9665504;23;20145;-90
2023/12/03 09:24:43;;;;;;;25.33;12.40;;;-1.80;99.90;;;;;;9663834;23;20200;-90
2023/12/03 09:28:32;;;;;;;29.03;13.30;;;-1.80;99.90;;;;;;9665467;23;20181;-90
2023/12/03 09:32:18;;;;;;;25.90;12.13;;;-1.90;99.90;;;;;;9690273;23;20231;-89
2023/12/03 09:36:04;;;;;;;25.87;12.70;;;-1.80;99.90;;;;;;9688290;23;20208;-89
2023/12/03 09:39:51;;;;;;;28.07;13.47;;;-1.80;99.90;;;;;;9660397;23;20157;-89
2023/12/03 09:43:40;;;;;;;27.53;12.40;;;-1.70;99.90;;;;;;9662645;23;20156;-89
2023/12/03 09:47:27;;;;;;;38.80;19.10;;;-1.60;99.90;;;;;;9662399;23;20263;-89
2023/12/03 09:51:13;;;;;;;26.83;14.07;;;-1.70;99.90;;;;;;9663525;23;20186;-90
2023/12/03 09:55:18;;;;;;;31.77;13.23;;;-1.70;99.90;;;;;;9660069;23;20164;-89
2023/12/03 09:59:06;;;;;;;25.20;12.47;;;-1.70;99.90;;;;;;9660827;23;20153;-90
2023/12/03 10:02:55;;;;;;;22.50;11.27;;;-1.70;99.90;;;;;;9661373;23;20152;-89
2023/12/03 10:06:55;;;;;;;25.53;12.30;;;-1.70;99.90;;;;;;9685267;23;20169;-90
2023/12/03 10:10:46;;;;;;;27.97;12.97;;;-1.60;99.90;;;;;;9662849;23;20156;-90
2023/12/03 10:14:31;;;;;;;23.27;11.63;;;-1.60;99.90;;;;;;9661372;23;20585;-89
2023/12/03 10:18:18;;;;;;;21.07;10.97;;;-1.60;99.90;;;;;;9661947;23;20536;-90
2023/12/03 10:22:05;;;;;;;21.37;10.63;;;-1.60;99.90;;;;;;9661132;23;20168;-89
2023/12/03 10:25:51;;;;;;;19.77;10.97;;;-1.60;99.90;;;;;;9659016;23;20545;-89
2023/12/03 10:29:37;;;;;;;25.20;11.27;;;-1.60;99.90;;;;;;9661232;23;20235;-90
2023/12/03 10:33:23;;;;;;;26.40;14.03;;;-1.60;99.90;;;;;;9661259;23;20167;-89
2023/12/03 10:37:09;;;;;;;26.53;16.10;;;-1.60;99.90;;;;;;9660580;23;20204;-89
2023/12/03 10:40:58;;;;;;;21.10;11.10;;;-1.60;99.90;;;;;;9661821;23;20598;-89
2023/12/03 10:44:43;;;;;;;22.47;11.67;;;-1.60;99.90;;;;;;9660519;23;20149;-89
2023/12/03 10:48:31;;;;;;;25.00;13.80;;;-1.60;99.90;;;;;;9661011;23;20235;-90
2023/12/03 10:52:23;;;;;;;23.00;12.97;;;-1.60;99.90;;;;;;9661882;23;20167;-90
2023/12/03 10:56:17;;;;;;;22.37;11.37;;;-1.60;99.90;;;;;;9661174;23;20240;-90
2023/12/03 11:00:05;;;;;;;23.60;11.40;;;-1.60;99.90;;;;;;9660104;23;20158;-89
2023/12/03 11:04:10;;;;;;;27.27;13.00;;;-1.50;99.90;;;;;;9663069;23;20203;-90
2023/12/03 11:07:57;;;;;;;34.37;14.13;;;-1.50;99.90;;;;;;9662109;23;20282;-88
2023/12/03 11:11:43;;;;;;;29.20;12.77;;;-1.50;99.90;;;;;;9661500;23;20164;-90
2023/12/03 11:15:29;;;;;;;24.17;12.70;;;-1.50;99.90;;;;;;9660086;23;20196;-89
2023/12/03 11:19:19;;;;;;;24.23;12.67;;;-1.50;99.90;;;;;;9660888;23;20168;-89
2023/12/03 11:23:13;;;;;;;23.93;11.83;;;-1.40;99.90;;;;;;9658228;23;20528;-90
2023/12/03 11:26:59;;;;;;;19.87;10.80;;;-1.40;99.90;;;;;;9660177;23;20177;-90
2023/12/03 11:30:44;;;;;;;20.80;10.67;;;-1.40;99.90;;;;;;9659343;23;20264;-89
2023/12/03 11:34:30;;;;;;;20.03;10.60;;;-1.30;99.90;;;;;;9659304;23;20215;-90
2023/12/03 11:38:22;;;;;;;22.87;11.50;;;-1.40;99.90;;;;;;9657897;23;20196;-89
2023/12/03 11:42:12;;;;;;;19.07;10.37;;;-1.40;99.90;;;;;;9659588;23;20604;-90
2023/12/03 11:45:58;;;;;;;29.67;14.50;;;-1.40;99.90;;;;;;9658088;23;20290;-90
2023/12/03 11:49:45;;;;;;;26.50;13.50;;;-1.40;99.90;;;;;;9663273;23;20610;-89
2023/12/03 11:53:43;;;;;;;24.57;11.77;;;-1.30;99.90;;;;;;9677391;22;20153;-88
2023/12/03 11:57:32;;;;;;;27.73;15.77;;;-1.40;99.90;;;;;;9707271;22;20205;-88
2023/12/03 12:01:18;;;;;;;21.47;11.17;;;-1.40;99.90;;;;;;9710207;22;20148;-89
2023/12/03 12:05:04;;;;;;;23.70;11.33;;;-1.30;99.90;;;;;;9687869;22;20173;-89
2023/12/03 12:08:50;;;;;;;23.03;12.17;;;-1.40;99.90;;;;;;9664070;23;20161;-90
2023/12/03 12:12:36;;;;;;;22.87;11.60;;;-1.40;99.90;;;;;;9664375;23;20298;-90
2023/12/03 12:16:23;;;;;;;25.60;12.90;;;-1.30;99.90;;;;;;9665913;23;20193;-90
2023/12/03 12:20:09;;;;;;;25.80;13.80;;;-1.30;99.90;;;;;;9665037;23;20496;-89
2023/12/03 12:23:55;;;;;;;29.63;15.30;;;-1.30;99.90;;;;;;9663601;23;20168;-90
2023/12/03 12:27:42;;;;;;;33.50;15.63;;;-1.30;99.90;;;;;;9663676;23;20185;-90
2023/12/03 12:31:29;;;;;;;35.73;17.73;;;-1.30;99.90;;;;;;9663433;23;20177;-90
2023/12/03 12:35:15;;;;;;;26.70;13.03;;;-1.30;99.90;;;;;;9663799;23;20189;-89
2023/12/03 12:39:00;;;;;;;28.97;14.10;;;-1.30;99.90;;;;;;9664163;23;20153;-92
2023/12/03 12:42:52;;;;;;;27.33;14.10;;;-1.40;99.90;;;;;;9664375;23;20184;-92
2023/12/03 12:46:54;;;;;;;25.57;14.13;;;-1.30;99.90;;;;;;9661573;23;20200;-90
2023/12/03 12:50:41;;;;;;;25.43;13.53;;;-1.20;99.90;;;;;;9663067;23;20160;-90
2023/12/03 12:54:44;;;;;;;24.33;12.57;;;-1.20;99.90;;;;;;9663622;23;20200;-90
2023/12/03 12:58:29;;;;;;;25.07;12.90;;;-1.20;99.90;;;;;;9664218;23;20192;-90
2023/12/03 13:02:23;;;;;;;26.07;12.47;;;-1.10;99.90;;;;;;9661040;23;20158;-90
2023/12/03 13:06:10;;;;;;;27.90;12.90;;;-1.10;99.90;;;;;;9661366;23;20207;-90
2023/12/03 13:09:56;;;;;;;27.27;14.90;;;-1.10;99.90;;;;;;9660653;23;20524;-90
2023/12/03 13:13:42;;;;;;;25.20;13.63;;;-1.10;99.90;;;;;;9660211;23;20164;-90
2023/12/03 13:17:28;;;;;;;26.40;13.20;;;-1.10;99.90;;;;;;9663408;23;20542;-90
2023/12/03 13:21:13;;;;;;;27.67;14.57;;;-1.20;99.90;;;;;;9662745;23;20197;-91
2023/12/03 13:24:59;;;;;;;28.77;14.07;;;-1.20;99.90;;;;;;9661929;23;20541;-90
2023/12/03 13:28:46;;;;;;;25.80;13.03;;;-1.20;99.90;;;;;;9663128;23;20153;-90
2023/12/03 13:32:38;;;;;;;25.73;12.43;;;-1.20;99.90;;;;;;9663265;23;20163;-90
2023/12/03 13:36:25;;;;;;;27.17;14.37;;;-1.20;99.90;;;;;;9662823;23;20705;-88
2023/12/03 13:40:11;;;;;;;25.60;13.33;;;-1.20;99.90;;;;;;9664180;23;20186;-91
2023/12/03 13:43:57;;;;;;;29.30;14.30;;;-1.20;99.90;;;;;;9663932;23;20203;-91
2023/12/03 13:47:43;;;;;;;27.67;14.07;;;-1.10;99.90;;;;;;9663323;23;20184;-90
2023/12/03 13:51:29;;;;;;;23.70;12.37;;;-1.10;99.90;;;;;;9663599;23;20241;-90
2023/12/03 13:55:15;;;;;;;26.83;14.60;;;-1.10;99.90;;;;;;9690053;23;20174;-90
2023/12/03 13:59:00;;;;;;;31.90;15.87;;;-1.10;99.90;;;;;;9663817;23;20160;-90
2023/12/03 14:02:46;;;;;;;33.33;15.77;;;-1.10;99.90;;;;;;9663193;23;20149;-90
2023/12/03 14:06:40;;;;;;;32.30;15.27;;;-1.10;99.90;;;;;;9663293;23;20184;-89
2023/12/03 14:10:29;;;;;;;31.53;14.33;;;-1.20;99.90;;;;;;9662959;23;20497;-89
2023/12/03 14:14:14;;;;;;;32.37;16.60;;;-1.20;99.90;;;;;;9689908;23;20181;-89
2023/12/03 14:18:01;;;;;;;30.73;15.37;;;-1.20;99.90;;;;;;9662601;23;20188;-89
2023/12/03 14:21:47;;;;;;;30.13;15.30;;;-1.20;99.90;;;;;;9662923;23;20159;-89
2023/12/03 14:25:33;;;;;;;27.90;14.43;;;-1.20;99.90;;;;;;9662603;23;20544;-89
2023/12/03 14:29:18;;;;;;;27.33;14.07;;;-1.30;99.90;;;;;;9689598;23;20383;-88
2023/12/03 14:33:05;;;;;;;28.50;14.87;;;-1.30;99.90;;;;;;9662684;23;20537;-90
2023/12/03 14:36:51;;;;;;;34.53;15.43;;;-1.20;99.90;;;;;;9662604;23;20206;-88
2023/12/03 14:40:36;;;;;;;30.83;15.40;;;-1.20;99.90;;;;;;9662363;23;20156;-89
2023/12/03 14:44:22;;;;;;;28.03;14.10;;;-1.20;99.90;;;;;;9662695;23;20569;-89
2023/12/03 14:48:07;;;;;;;26.80;13.97;;;-1.20;99.90;;;;;;9662387;23;20718;-88
2023/12/03 14:51:53;;;;;;;28.33;14.37;;;-1.20;99.90;;;;;;9660333;23;20165;-89
2023/12/03 14:55:42;;;;;;;26.73;14.23;;;-1.20;99.90;;;;;;9661705;23;20192;-89
2023/12/03 14:59:29;;;;;;;27.30;13.93;;;-1.20;99.90;;;;;;9660927;23;20161;-89
2023/12/03 15:03:14;;;;;;;29.07;13.73;;;-1.20;99.90;;;;;;9661597;23;20601;-88
2023/12/03 15:07:00;;;;;;;27.80;14.97;;;-1.10;99.90;;;;;;9662233;23;20200;-89
2023/12/03 15:10:45;;;;;;;29.07;14.60;;;-1.10;99.90;;;;;;9689179;23;20153;-89
2023/12/03 15:14:31;;;;;;;24.57;13.57;;;-1.10;99.90;;;;;;9661510;23;20164;-89
2023/12/03 15:18:17;;;;;;;26.40;13.80;;;-1.20;99.90;;;;;;9662003;23;20188;-89
2023/12/03 15:22:02;;;;;;;28.53;13.83;;;-1.20;99.90;;;;;;9662130;23;20164;-89
2023/12/03 15:25:53;;;;;;;30.40;14.20;;;-1.20;99.90;;;;;;9661778;23;20180;-89
2023/12/03 15:29:39;;;;;;;24.97;13.50;;;-1.20;99.90;;;;;;9662122;23;20176;-89
2023/12/03 15:33:24;;;;;;;32.93;15.20;;;-1.10;99.90;;;;;;9661839;23;20164;-89
2023/12/03 15:37:10;;;;;;;34.70;17.70;;;-1.10;99.90;;;;;;9661281;23;20424;-89
2023/12/03 15:40:56;;;;;;;27.70;14.90;;;-1.10;99.90;;;;;;9662074;23;20160;-89
2023/12/03 15:44:41;;;;;;;27.67;14.97;;;-1.10;99.90;;;;;;9662710;23;20826;-89
2023/12/03 15:48:28;;;;;;;28.67;14.27;;;-1.10;99.90;;;;;;9691397;23;20191;-89
2023/12/03 15:52:14;;;;;;;30.33;15.27;;;-1.10;99.90;;;;;;9665186;23;20150;-89
2023/12/03 15:56:00;;;;;;;25.73;14.07;;;-1.10;99.90;;;;;;9663874;23;20232;-89
2023/12/03 15:59:46;;;;;;;27.87;13.97;;;-1.00;99.90;;;;;;9663534;23;20153;-89
2023/12/03 16:03:40;;;;;;;30.20;14.37;;;-1.00;99.90;;;;;;9663962;23;20154;-89
2023/12/03 16:07:27;;;;;;;25.87;13.37;;;-1.00;99.90;;;;;;9664161;23;20264;-89
2023/12/03 16:11:12;;;;;;;27.27;14.30;;;-1.00;99.90;;;;;;9664812;23;20471;-89
2023/12/03 16:15:03;;;;;;;29.67;14.13;;;-1.00;99.90;;;;;;9665196;23;20252;-89
2023/12/03 16:18:48;;;;;;;27.80;13.67;;;-1.00;99.90;;;;;;9662858;23;20160;-87
2023/12/03 16:22:38;;;;;;;27.07;13.80;;;-1.00;99.90;;;;;;9661980;23;20164;-88
2023/12/03 16:26:24;;;;;;;31.23;16.20;;;-1.10;99.90;;;;;;9662863;23;20645;-89
2023/12/03 16:30:10;;;;;;;34.87;17.30;;;-1.00;99.90;;;;;;9690153;23;20664;-89
2023/12/03 16:33:56;;;;;;;33.43;16.43;;;-1.00;99.90;;;;;;9663537;23;20181;-89
2023/12/03 16:37:41;;;;;;;50.72;25.73;;;-1.00;99.90;;;;;;9662881;23;20392;-88
2023/12/03 16:41:28;;;;;;;35.23;16.93;;;-0.90;99.90;;;;;;9664112;23;20157;-90
2023/12/03 16:45:14;;;;;;;35.23;18.13;;;-0.90;99.90;;;;;;9690508;23;20173;-89
2023/12/03 16:49:00;;;;;;;30.57;16.00;;;-1.00;99.90;;;;;;9662525;23;20160;-89
2023/12/03 16:52:48;;;;;;;33.63;16.17;;;-1.00;99.90;;;;;;9662514;23;20157;-87
2023/12/03 16:56:40;;;;;;;30.17;15.83;;;-0.90;99.90;;;;;;9661122;23;20189;-89
2023/12/03 17:00:36;;;;;;;34.67;17.13;;;-1.00;99.90;;;;;;9662972;23;20142;-90
2023/12/03 17:04:28;;;;;;;32.07;16.63;;;-1.00;99.90;;;;;;9663087;23;20176;-89
2023/12/03 17:08:17;;;;;;;33.97;17.37;;;-1.00;99.90;;;;;;9663956;23;20204;-89
2023/12/03 17:12:09;;;;;;;42.40;20.23;;;-1.00;99.90;;;;;;9690391;23;20145;-89
2023/12/03 17:15:55;;;;;;;37.13;18.50;;;-1.00;99.90;;;;;;9662140;23;20202;-90
2023/12/03 17:19:41;;;;;;;32.53;17.17;;;-1.00;99.90;;;;;;9662722;23;20160;-89
2023/12/03 17:23:26;;;;;;;31.00;17.00;;;-1.00;99.90;;;;;;9662331;23;20152;-90
2023/12/03 17:27:12;;;;;;;32.50;16.63;;;-1.00;99.90;;;;;;9662646;23;20181;-90
2023/12/03 17:31:16;;;;;;;30.87;16.07;;;-1.00;99.90;;;;;;9690192;23;20542;-89
2023/12/03 17:35:05;;;;;;;31.63;15.57;;;-1.00;99.90;;;;;;9689790;22;20208;-92
2023/12/03 17:38:51;;;;;;;36.87;17.30;;;-1.00;99.90;;;;;;9708871;22;20149;-91
2023/12/03 17:42:37;;;;;;;35.47;16.97;;;-0.90;99.90;;;;;;9704009;22;20160;-89
2023/12/03 17:46:23;;;;;;;30.40;15.77;;;-1.00;99.90;;;;;;9693852;23;20260;-89
2023/12/03 17:50:09;;;;;;;30.33;15.47;;;-0.90;99.90;;;;;;9664643;23;20727;-89
2023/12/03 17:54:00;;;;;;;30.17;14.80;;;-0.90;99.90;;;;;;9662412;23;20503;-90
2023/12/03 17:57:48;;;;;;;25.03;13.37;;;-1.00;99.90;;;;;;9662291;23;20189;-89
2023/12/03 18:01:34;;;;;;;28.70;14.53;;;-0.90;99.90;;;;;;9688775;23;20134;-89
2023/12/03 18:05:23;;;;;;;34.20;15.30;;;-1.00;99.90;;;;;;9661195;23;20252;-90
2023/12/03 18:09:08;;;;;;;31.77;14.73;;;-1.00;99.90;;;;;;9660922;23;20221;-89
2023/12/03 18:13:06;;;;;;;28.30;14.43;;;-1.00;99.90;;;;;;9661974;23;20160;-89
2023/12/03 18:16:52;;;;;;;29.37;14.47;;;-1.00;99.90;;;;;;9661513;23;20430;-87
2023/12/03 18:20:38;;;;;;;30.20;14.60;;;-0.90;99.90;;;;;;9661499;23;20168;-89
2023/12/03 18:24:24;;;;;;;31.40;15.30;;;-0.90;99.90;;;;;;9660973;23;20156;-89
2023/12/03 18:28:10;;;;;;;29.73;14.60;;;-0.90;99.90;;;;;;9661110;23;20188;-89
2023/12/03 18:32:02;;;;;;;29.17;14.10;;;-0.90;99.90;;;;;;9661073;23;20191;-91
2023/12/03 18:35:50;;;;;;;30.50;14.93;;;-0.90;99.90;;;;;;9686970;23;20180;-90
2023/12/03 18:39:37;;;;;;;31.57;15.30;;;-0.90;99.90;;;;;;9660455;23;20252;-90
2023/12/03 18:43:23;;;;;;;33.53;16.03;;;-0.80;99.90;;;;;;9661492;23;20267;-87
2023/12/03 18:47:11;;;;;;;34.77;17.67;;;-0.90;99.90;;;;;;9661113;23;20185;-88
2023/12/03 18:50:56;;;;;;;29.90;16.20;;;-0.90;99.90;;;;;;9657009;23;20153;-86
2023/12/03 18:54:43;;;;;;;31.17;15.67;;;-0.90;99.90;;;;;;9657134;23;20163;-88
2023/12/03 18:58:29;;;;;;;32.73;15.93;;;-0.90;99.90;;;;;;9656003;23;20224;-87
2023/12/03 19:02:14;;;;;;;33.57;15.93;;;-0.90;99.90;;;;;;9657171;23;20149;-88
2023/12/03 19:06:01;;;;;;;33.27;16.40;;;-0.80;99.90;;;;;;9657833;23;20851;-88
2023/12/03 19:09:47;;;;;;;30.90;16.90;;;-0.80;99.90;;;;;;9683598;23;20144;-88
2023/12/03 19:13:32;;;;;;;32.47;16.60;;;-0.80;99.90;;;;;;9658536;23;20233;-88